<?xml version="1.0" encoding="UTF-8" standalone="no" ?>
<gpx xmlns="http://www.topografix.com/GPX/1/1" xmlns:xsi="http://www.w3.org/2001/XMLSchema-instance" xsi:schemaLocation="http://www.topografix.com/GPX/1/1 http://www.topografix.com/GPX/1/1/gpx.xsd" version="1.1" creator="VisuGPX - https://www.visugpx.com">
  <metadata>
    <name>Vacances 2021</name>
  </metadata>
  <trk>
    <name><![CDATA[Journal actif: 2021-07-24 15:41]]></name>
    <trkseg>
      <trkpt lat="49.19529" lon="5.43294">
        <ele>348.62</ele>
        <time>2021-07-24T17:41:44Z</time>
      </trkpt>
      <trkpt lat="49.1953" lon="5.43296">
        <ele>350.06</ele>
        <time>2021-07-24T17:42:41Z</time>
      </trkpt>
      <trkpt lat="49.1953" lon="5.43296">
        <ele>350.06</ele>
        <time>2021-07-24T17:43:27Z</time>
      </trkpt>
      <trkpt lat="49.19535" lon="5.43303">
        <ele>350.06</ele>
        <time>2021-07-24T17:44:01Z</time>
      </trkpt>
      <trkpt lat="49.19582" lon="5.43307">
        <ele>349.1</ele>
        <time>2021-07-24T17:44:15Z</time>
      </trkpt>
      <trkpt lat="49.19604" lon="5.43262">
        <ele>348.62</ele>
        <time>2021-07-24T17:44:26Z</time>
      </trkpt>
      <trkpt lat="49.19616" lon="5.4324">
        <ele>349.1</ele>
        <time>2021-07-24T17:44:32Z</time>
      </trkpt>
      <trkpt lat="49.19618" lon="5.43239">
        <ele>349.1</ele>
        <time>2021-07-24T17:44:33Z</time>
      </trkpt>
      <trkpt lat="49.1962" lon="5.43237">
        <ele>350.06</ele>
        <time>2021-07-24T17:44:44Z</time>
      </trkpt>
      <trkpt lat="49.1962" lon="5.43237">
        <ele>350.06</ele>
        <time>2021-07-24T17:45:11Z</time>
      </trkpt>
      <trkpt lat="49.19611" lon="5.43246">
        <ele>350.06</ele>
        <time>2021-07-24T17:45:13Z</time>
      </trkpt>
      <trkpt lat="49.19611" lon="5.43246">
        <ele>349.58</ele>
        <time>2021-07-24T17:45:14Z</time>
      </trkpt>
      <trkpt lat="49.19611" lon="5.43246">
        <ele>349.58</ele>
        <time>2021-07-24T17:45:15Z</time>
      </trkpt>
      <trkpt lat="49.1961" lon="5.4325">
        <ele>349.58</ele>
        <time>2021-07-24T17:45:16Z</time>
      </trkpt>
      <trkpt lat="49.19607" lon="5.43255">
        <ele>349.58</ele>
        <time>2021-07-24T17:45:17Z</time>
      </trkpt>
      <trkpt lat="49.19559" lon="5.43342">
        <ele>352.46</ele>
        <time>2021-07-24T17:45:29Z</time>
      </trkpt>
      <trkpt lat="49.19469" lon="5.43473">
        <ele>352.94</ele>
        <time>2021-07-24T17:45:43Z</time>
      </trkpt>
      <trkpt lat="49.19329" lon="5.43667">
        <ele>354.38</ele>
        <time>2021-07-24T17:45:58Z</time>
      </trkpt>
      <trkpt lat="49.19209" lon="5.43802">
        <ele>356.79</ele>
        <time>2021-07-24T17:46:09Z</time>
      </trkpt>
      <trkpt lat="49.19077" lon="5.43947">
        <ele>365.44</ele>
        <time>2021-07-24T17:46:22Z</time>
      </trkpt>
      <trkpt lat="49.1898" lon="5.44114">
        <ele>376.01</ele>
        <time>2021-07-24T17:46:34Z</time>
      </trkpt>
      <trkpt lat="49.18943" lon="5.44209">
        <ele>382.74</ele>
        <time>2021-07-24T17:46:42Z</time>
      </trkpt>
      <trkpt lat="49.18941" lon="5.44216">
        <ele>383.22</ele>
        <time>2021-07-24T17:46:43Z</time>
      </trkpt>
      <trkpt lat="49.18937" lon="5.44229">
        <ele>382.74</ele>
        <time>2021-07-24T17:46:51Z</time>
      </trkpt>
      <trkpt lat="49.18933" lon="5.44243">
        <ele>383.22</ele>
        <time>2021-07-24T17:47:09Z</time>
      </trkpt>
      <trkpt lat="49.18933" lon="5.44245">
        <ele>383.22</ele>
        <time>2021-07-24T17:47:10Z</time>
      </trkpt>
      <trkpt lat="49.18933" lon="5.44245">
        <ele>382.74</ele>
        <time>2021-07-24T17:47:11Z</time>
      </trkpt>
      <trkpt lat="49.18932" lon="5.44247">
        <ele>382.74</ele>
        <time>2021-07-24T17:47:12Z</time>
      </trkpt>
      <trkpt lat="49.18932" lon="5.44247">
        <ele>382.74</ele>
        <time>2021-07-24T17:47:25Z</time>
      </trkpt>
      <trkpt lat="49.18932" lon="5.44247">
        <ele>382.74</ele>
        <time>2021-07-24T17:47:29Z</time>
      </trkpt>
      <trkpt lat="49.18933" lon="5.44244">
        <ele>381.78</ele>
        <time>2021-07-24T17:47:30Z</time>
      </trkpt>
      <trkpt lat="49.18937" lon="5.4423">
        <ele>381.3</ele>
        <time>2021-07-24T17:47:31Z</time>
      </trkpt>
      <trkpt lat="49.18937" lon="5.4423">
        <ele>379.86</ele>
        <time>2021-07-24T17:47:32Z</time>
      </trkpt>
      <trkpt lat="49.18939" lon="5.4422">
        <ele>378.9</ele>
        <time>2021-07-24T17:47:33Z</time>
      </trkpt>
      <trkpt lat="49.18943" lon="5.44209">
        <ele>377.94</ele>
        <time>2021-07-24T17:47:34Z</time>
      </trkpt>
      <trkpt lat="49.18999" lon="5.4408">
        <ele>366.4</ele>
        <time>2021-07-24T17:47:42Z</time>
      </trkpt>
      <trkpt lat="49.19109" lon="5.43907">
        <ele>359.19</ele>
        <time>2021-07-24T17:47:53Z</time>
      </trkpt>
      <trkpt lat="49.19195" lon="5.43816">
        <ele>357.27</ele>
        <time>2021-07-24T17:48:02Z</time>
      </trkpt>
      <trkpt lat="49.19215" lon="5.43795">
        <ele>357.27</ele>
        <time>2021-07-24T17:48:06Z</time>
      </trkpt>
      <trkpt lat="49.19218" lon="5.43792">
        <ele>357.27</ele>
        <time>2021-07-24T17:48:07Z</time>
      </trkpt>
      <trkpt lat="49.19221" lon="5.43788">
        <ele>357.75</ele>
        <time>2021-07-24T17:48:08Z</time>
      </trkpt>
      <trkpt lat="49.1922" lon="5.43782">
        <ele>357.75</ele>
        <time>2021-07-24T17:48:09Z</time>
      </trkpt>
      <trkpt lat="49.19216" lon="5.43778">
        <ele>357.75</ele>
        <time>2021-07-24T17:48:10Z</time>
      </trkpt>
      <trkpt lat="49.19212" lon="5.43772">
        <ele>357.75</ele>
        <time>2021-07-24T17:48:11Z</time>
      </trkpt>
      <trkpt lat="49.19207" lon="5.43765">
        <ele>357.27</ele>
        <time>2021-07-24T17:48:12Z</time>
      </trkpt>
      <trkpt lat="49.19138" lon="5.43672">
        <ele>353.9</ele>
        <time>2021-07-24T17:48:21Z</time>
      </trkpt>
      <trkpt lat="49.19003" lon="5.4349">
        <ele>351.02</ele>
        <time>2021-07-24T17:48:34Z</time>
      </trkpt>
      <trkpt lat="49.18833" lon="5.43295">
        <ele>345.73</ele>
        <time>2021-07-24T17:48:46Z</time>
      </trkpt>
      <trkpt lat="49.1858" lon="5.43025">
        <ele>341.89</ele>
        <time>2021-07-24T17:49:04Z</time>
      </trkpt>
      <trkpt lat="49.18461" lon="5.42913">
        <ele>341.89</ele>
        <time>2021-07-24T17:49:12Z</time>
      </trkpt>
      <trkpt lat="49.18445" lon="5.42909">
        <ele>342.37</ele>
        <time>2021-07-24T17:49:13Z</time>
      </trkpt>
      <trkpt lat="49.18431" lon="5.42906">
        <ele>342.85</ele>
        <time>2021-07-24T17:49:14Z</time>
      </trkpt>
      <trkpt lat="49.18416" lon="5.42903">
        <ele>343.81</ele>
        <time>2021-07-24T17:49:15Z</time>
      </trkpt>
      <trkpt lat="49.18401" lon="5.42905">
        <ele>342.37</ele>
        <time>2021-07-24T17:49:16Z</time>
      </trkpt>
      <trkpt lat="49.18384" lon="5.42908">
        <ele>341.89</ele>
        <time>2021-07-24T17:49:17Z</time>
      </trkpt>
      <trkpt lat="49.18335" lon="5.42916">
        <ele>337.56</ele>
        <time>2021-07-24T17:49:20Z</time>
      </trkpt>
      <trkpt lat="49.18318" lon="5.42916">
        <ele>336.6</ele>
        <time>2021-07-24T17:49:21Z</time>
      </trkpt>
      <trkpt lat="49.18302" lon="5.42912">
        <ele>335.64</ele>
        <time>2021-07-24T17:49:22Z</time>
      </trkpt>
      <trkpt lat="49.18284" lon="5.42908">
        <ele>334.68</ele>
        <time>2021-07-24T17:49:23Z</time>
      </trkpt>
      <trkpt lat="49.18267" lon="5.42904">
        <ele>333.23</ele>
        <time>2021-07-24T17:49:24Z</time>
      </trkpt>
      <trkpt lat="49.17966" lon="5.42783">
        <ele>333.71</ele>
        <time>2021-07-24T17:49:41Z</time>
      </trkpt>
      <trkpt lat="49.17885" lon="5.42774">
        <ele>332.27</ele>
        <time>2021-07-24T17:49:46Z</time>
      </trkpt>
      <trkpt lat="49.17868" lon="5.42777">
        <ele>332.27</ele>
        <time>2021-07-24T17:49:47Z</time>
      </trkpt>
      <trkpt lat="49.17777" lon="5.42815">
        <ele>328.91</ele>
        <time>2021-07-24T17:49:53Z</time>
      </trkpt>
      <trkpt lat="49.17764" lon="5.42821">
        <ele>329.39</ele>
        <time>2021-07-24T17:49:54Z</time>
      </trkpt>
      <trkpt lat="49.17748" lon="5.42826">
        <ele>328.91</ele>
        <time>2021-07-24T17:49:55Z</time>
      </trkpt>
      <trkpt lat="49.17734" lon="5.42828">
        <ele>327.95</ele>
        <time>2021-07-24T17:49:56Z</time>
      </trkpt>
      <trkpt lat="49.1772" lon="5.4283">
        <ele>327.47</ele>
        <time>2021-07-24T17:49:57Z</time>
      </trkpt>
      <trkpt lat="49.1769" lon="5.4282">
        <ele>326.5</ele>
        <time>2021-07-24T17:49:59Z</time>
      </trkpt>
      <trkpt lat="49.17677" lon="5.42813">
        <ele>324.58</ele>
        <time>2021-07-24T17:50:00Z</time>
      </trkpt>
      <trkpt lat="49.17664" lon="5.42805">
        <ele>324.1</ele>
        <time>2021-07-24T17:50:01Z</time>
      </trkpt>
      <trkpt lat="49.17652" lon="5.42795">
        <ele>324.1</ele>
        <time>2021-07-24T17:50:02Z</time>
      </trkpt>
      <trkpt lat="49.17641" lon="5.42783">
        <ele>323.14</ele>
        <time>2021-07-24T17:50:03Z</time>
      </trkpt>
      <trkpt lat="49.1763" lon="5.42769">
        <ele>322.66</ele>
        <time>2021-07-24T17:50:04Z</time>
      </trkpt>
      <trkpt lat="49.17618" lon="5.42753">
        <ele>323.14</ele>
        <time>2021-07-24T17:50:05Z</time>
      </trkpt>
      <trkpt lat="49.17608" lon="5.42732">
        <ele>322.18</ele>
        <time>2021-07-24T17:50:06Z</time>
      </trkpt>
      <trkpt lat="49.17599" lon="5.42712">
        <ele>321.22</ele>
        <time>2021-07-24T17:50:07Z</time>
      </trkpt>
      <trkpt lat="49.17594" lon="5.42694">
        <ele>321.22</ele>
        <time>2021-07-24T17:50:08Z</time>
      </trkpt>
      <trkpt lat="49.17549" lon="5.42481">
        <ele>316.41</ele>
        <time>2021-07-24T17:50:17Z</time>
      </trkpt>
      <trkpt lat="49.17486" lon="5.42147">
        <ele>309.2</ele>
        <time>2021-07-24T17:50:30Z</time>
      </trkpt>
      <trkpt lat="49.17485" lon="5.42122">
        <ele>308.72</ele>
        <time>2021-07-24T17:50:31Z</time>
      </trkpt>
      <trkpt lat="49.17482" lon="5.42083">
        <ele>307.76</ele>
        <time>2021-07-24T17:50:33Z</time>
      </trkpt>
      <trkpt lat="49.17481" lon="5.42066">
        <ele>307.28</ele>
        <time>2021-07-24T17:50:34Z</time>
      </trkpt>
      <trkpt lat="49.1748" lon="5.42052">
        <ele>306.8</ele>
        <time>2021-07-24T17:50:35Z</time>
      </trkpt>
      <trkpt lat="49.17477" lon="5.42036">
        <ele>308.24</ele>
        <time>2021-07-24T17:50:36Z</time>
      </trkpt>
      <trkpt lat="49.17474" lon="5.42021">
        <ele>306.8</ele>
        <time>2021-07-24T17:50:37Z</time>
      </trkpt>
      <trkpt lat="49.17466" lon="5.42012">
        <ele>306.32</ele>
        <time>2021-07-24T17:50:38Z</time>
      </trkpt>
      <trkpt lat="49.17456" lon="5.42001">
        <ele>305.84</ele>
        <time>2021-07-24T17:50:39Z</time>
      </trkpt>
      <trkpt lat="49.17321" lon="5.41923">
        <ele>298.63</ele>
        <time>2021-07-24T17:50:50Z</time>
      </trkpt>
      <trkpt lat="49.1714" lon="5.41858">
        <ele>285.65</ele>
        <time>2021-07-24T17:51:03Z</time>
      </trkpt>
      <trkpt lat="49.1713" lon="5.4185">
        <ele>284.21</ele>
        <time>2021-07-24T17:51:04Z</time>
      </trkpt>
      <trkpt lat="49.17111" lon="5.41832">
        <ele>283.73</ele>
        <time>2021-07-24T17:51:05Z</time>
      </trkpt>
      <trkpt lat="49.17111" lon="5.41832">
        <ele>282.77</ele>
        <time>2021-07-24T17:51:06Z</time>
      </trkpt>
      <trkpt lat="49.17073" lon="5.41794">
        <ele>279.4</ele>
        <time>2021-07-24T17:51:09Z</time>
      </trkpt>
      <trkpt lat="49.17073" lon="5.41794">
        <ele>278.92</ele>
        <time>2021-07-24T17:51:10Z</time>
      </trkpt>
      <trkpt lat="49.17064" lon="5.41792">
        <ele>279.88</ele>
        <time>2021-07-24T17:51:11Z</time>
      </trkpt>
      <trkpt lat="49.17054" lon="5.41791">
        <ele>280.36</ele>
        <time>2021-07-24T17:51:12Z</time>
      </trkpt>
      <trkpt lat="49.17038" lon="5.41801">
        <ele>280.36</ele>
        <time>2021-07-24T17:51:13Z</time>
      </trkpt>
      <trkpt lat="49.17038" lon="5.41801">
        <ele>279.4</ele>
        <time>2021-07-24T17:51:14Z</time>
      </trkpt>
      <trkpt lat="49.1703" lon="5.41808">
        <ele>278.44</ele>
        <time>2021-07-24T17:51:15Z</time>
      </trkpt>
      <trkpt lat="49.17022" lon="5.41817">
        <ele>277.96</ele>
        <time>2021-07-24T17:51:16Z</time>
      </trkpt>
      <trkpt lat="49.16946" lon="5.41946">
        <ele>272.19</ele>
        <time>2021-07-24T17:51:26Z</time>
      </trkpt>
      <trkpt lat="49.16933" lon="5.4198">
        <ele>270.27</ele>
        <time>2021-07-24T17:51:28Z</time>
      </trkpt>
      <trkpt lat="49.1693" lon="5.41997">
        <ele>269.31</ele>
        <time>2021-07-24T17:51:29Z</time>
      </trkpt>
      <trkpt lat="49.16928" lon="5.42012">
        <ele>268.83</ele>
        <time>2021-07-24T17:51:30Z</time>
      </trkpt>
      <trkpt lat="49.16918" lon="5.42079">
        <ele>266.42</ele>
        <time>2021-07-24T17:51:35Z</time>
      </trkpt>
      <trkpt lat="49.16911" lon="5.42099">
        <ele>265.94</ele>
        <time>2021-07-24T17:51:36Z</time>
      </trkpt>
      <trkpt lat="49.16911" lon="5.42099">
        <ele>264.98</ele>
        <time>2021-07-24T17:51:37Z</time>
      </trkpt>
      <trkpt lat="49.16905" lon="5.42108">
        <ele>264.98</ele>
        <time>2021-07-24T17:51:38Z</time>
      </trkpt>
      <trkpt lat="49.169" lon="5.42114">
        <ele>264.02</ele>
        <time>2021-07-24T17:51:39Z</time>
      </trkpt>
      <trkpt lat="49.16891" lon="5.42116">
        <ele>263.54</ele>
        <time>2021-07-24T17:51:40Z</time>
      </trkpt>
      <trkpt lat="49.16884" lon="5.42116">
        <ele>263.06</ele>
        <time>2021-07-24T17:51:41Z</time>
      </trkpt>
      <trkpt lat="49.16876" lon="5.42114">
        <ele>262.1</ele>
        <time>2021-07-24T17:51:42Z</time>
      </trkpt>
      <trkpt lat="49.1687" lon="5.42111">
        <ele>261.14</ele>
        <time>2021-07-24T17:51:43Z</time>
      </trkpt>
      <trkpt lat="49.16863" lon="5.42099">
        <ele>261.14</ele>
        <time>2021-07-24T17:51:44Z</time>
      </trkpt>
      <trkpt lat="49.16855" lon="5.42087">
        <ele>260.65</ele>
        <time>2021-07-24T17:51:45Z</time>
      </trkpt>
      <trkpt lat="49.16849" lon="5.42071">
        <ele>259.69</ele>
        <time>2021-07-24T17:51:46Z</time>
      </trkpt>
      <trkpt lat="49.16782" lon="5.41876">
        <ele>252.96</ele>
        <time>2021-07-24T17:51:58Z</time>
      </trkpt>
      <trkpt lat="49.16779" lon="5.41856">
        <ele>252</ele>
        <time>2021-07-24T17:51:59Z</time>
      </trkpt>
      <trkpt lat="49.16775" lon="5.41838">
        <ele>251.52</ele>
        <time>2021-07-24T17:52:00Z</time>
      </trkpt>
      <trkpt lat="49.16769" lon="5.4166">
        <ele>249.12</ele>
        <time>2021-07-24T17:52:09Z</time>
      </trkpt>
      <trkpt lat="49.16768" lon="5.41643">
        <ele>250.08</ele>
        <time>2021-07-24T17:52:10Z</time>
      </trkpt>
      <trkpt lat="49.16763" lon="5.41628">
        <ele>249.6</ele>
        <time>2021-07-24T17:52:11Z</time>
      </trkpt>
      <trkpt lat="49.16757" lon="5.41616">
        <ele>249.12</ele>
        <time>2021-07-24T17:52:12Z</time>
      </trkpt>
      <trkpt lat="49.16752" lon="5.41608">
        <ele>247.2</ele>
        <time>2021-07-24T17:52:13Z</time>
      </trkpt>
      <trkpt lat="49.16736" lon="5.41595">
        <ele>246.23</ele>
        <time>2021-07-24T17:52:14Z</time>
      </trkpt>
      <trkpt lat="49.16728" lon="5.41589">
        <ele>246.23</ele>
        <time>2021-07-24T17:52:15Z</time>
      </trkpt>
      <trkpt lat="49.16712" lon="5.41578">
        <ele>244.31</ele>
        <time>2021-07-24T17:52:18Z</time>
      </trkpt>
      <trkpt lat="49.16706" lon="5.41571">
        <ele>243.83</ele>
        <time>2021-07-24T17:52:19Z</time>
      </trkpt>
      <trkpt lat="49.167" lon="5.41563">
        <ele>243.35</ele>
        <time>2021-07-24T17:52:20Z</time>
      </trkpt>
      <trkpt lat="49.16693" lon="5.41555">
        <ele>242.87</ele>
        <time>2021-07-24T17:52:21Z</time>
      </trkpt>
      <trkpt lat="49.1669" lon="5.41544">
        <ele>241.43</ele>
        <time>2021-07-24T17:52:22Z</time>
      </trkpt>
      <trkpt lat="49.16685" lon="5.41529">
        <ele>240.95</ele>
        <time>2021-07-24T17:52:23Z</time>
      </trkpt>
      <trkpt lat="49.16681" lon="5.41515">
        <ele>240.47</ele>
        <time>2021-07-24T17:52:24Z</time>
      </trkpt>
      <trkpt lat="49.16681" lon="5.41501">
        <ele>239.99</ele>
        <time>2021-07-24T17:52:25Z</time>
      </trkpt>
      <trkpt lat="49.16683" lon="5.41485">
        <ele>238.54</ele>
        <time>2021-07-24T17:52:26Z</time>
      </trkpt>
      <trkpt lat="49.16685" lon="5.41469">
        <ele>237.58</ele>
        <time>2021-07-24T17:52:27Z</time>
      </trkpt>
      <trkpt lat="49.16688" lon="5.41453">
        <ele>236.14</ele>
        <time>2021-07-24T17:52:28Z</time>
      </trkpt>
      <trkpt lat="49.16707" lon="5.41347">
        <ele>232.78</ele>
        <time>2021-07-24T17:52:34Z</time>
      </trkpt>
      <trkpt lat="49.16709" lon="5.4133">
        <ele>232.78</ele>
        <time>2021-07-24T17:52:35Z</time>
      </trkpt>
      <trkpt lat="49.16708" lon="5.41312">
        <ele>232.78</ele>
        <time>2021-07-24T17:52:36Z</time>
      </trkpt>
      <trkpt lat="49.16704" lon="5.41293">
        <ele>232.78</ele>
        <time>2021-07-24T17:52:37Z</time>
      </trkpt>
      <trkpt lat="49.16692" lon="5.41261">
        <ele>231.33</ele>
        <time>2021-07-24T17:52:38Z</time>
      </trkpt>
      <trkpt lat="49.16692" lon="5.41261">
        <ele>231.81</ele>
        <time>2021-07-24T17:52:39Z</time>
      </trkpt>
      <trkpt lat="49.16634" lon="5.41118">
        <ele>224.61</ele>
        <time>2021-07-24T17:52:49Z</time>
      </trkpt>
      <trkpt lat="49.1656" lon="5.40902">
        <ele>217.4</ele>
        <time>2021-07-24T17:53:05Z</time>
      </trkpt>
      <trkpt lat="49.16565" lon="5.40756">
        <ele>211.63</ele>
        <time>2021-07-24T17:53:15Z</time>
      </trkpt>
      <trkpt lat="49.16573" lon="5.40688">
        <ele>208.74</ele>
        <time>2021-07-24T17:53:23Z</time>
      </trkpt>
      <trkpt lat="49.16574" lon="5.40667">
        <ele>207.3</ele>
        <time>2021-07-24T17:53:33Z</time>
      </trkpt>
      <trkpt lat="49.16576" lon="5.40663">
        <ele>207.3</ele>
        <time>2021-07-24T17:53:34Z</time>
      </trkpt>
      <trkpt lat="49.16578" lon="5.40657">
        <ele>206.82</ele>
        <time>2021-07-24T17:53:35Z</time>
      </trkpt>
      <trkpt lat="49.16588" lon="5.40634">
        <ele>206.34</ele>
        <time>2021-07-24T17:53:42Z</time>
      </trkpt>
      <trkpt lat="49.166" lon="5.40613">
        <ele>205.38</ele>
        <time>2021-07-24T17:54:23Z</time>
      </trkpt>
      <trkpt lat="49.16646" lon="5.40515">
        <ele>202.49</ele>
        <time>2021-07-24T17:54:32Z</time>
      </trkpt>
      <trkpt lat="49.16728" lon="5.40299">
        <ele>199.61</ele>
        <time>2021-07-24T17:54:47Z</time>
      </trkpt>
      <trkpt lat="49.16742" lon="5.40103">
        <ele>197.69</ele>
        <time>2021-07-24T17:54:58Z</time>
      </trkpt>
      <trkpt lat="49.16747" lon="5.39895">
        <ele>197.69</ele>
        <time>2021-07-24T17:55:10Z</time>
      </trkpt>
      <trkpt lat="49.16747" lon="5.3989">
        <ele>197.21</ele>
        <time>2021-07-24T17:55:11Z</time>
      </trkpt>
      <trkpt lat="49.16753" lon="5.39882">
        <ele>196.73</ele>
        <time>2021-07-24T17:55:13Z</time>
      </trkpt>
      <trkpt lat="49.16753" lon="5.39877">
        <ele>196.73</ele>
        <time>2021-07-24T17:55:14Z</time>
      </trkpt>
      <trkpt lat="49.16749" lon="5.3986">
        <ele>196.73</ele>
        <time>2021-07-24T17:55:15Z</time>
      </trkpt>
      <trkpt lat="49.16749" lon="5.3985">
        <ele>196.73</ele>
        <time>2021-07-24T17:55:17Z</time>
      </trkpt>
      <trkpt lat="49.16754" lon="5.39694">
        <ele>196.25</ele>
        <time>2021-07-24T17:55:30Z</time>
      </trkpt>
      <trkpt lat="49.16762" lon="5.394">
        <ele>195.28</ele>
        <time>2021-07-24T17:55:50Z</time>
      </trkpt>
      <trkpt lat="49.16768" lon="5.39196">
        <ele>195.77</ele>
        <time>2021-07-24T17:56:04Z</time>
      </trkpt>
      <trkpt lat="49.16774" lon="5.38962">
        <ele>198.65</ele>
        <time>2021-07-24T17:56:19Z</time>
      </trkpt>
      <trkpt lat="49.16777" lon="5.38809">
        <ele>199.61</ele>
        <time>2021-07-24T17:56:29Z</time>
      </trkpt>
      <trkpt lat="49.16769" lon="5.38718">
        <ele>202.01</ele>
        <time>2021-07-24T17:56:37Z</time>
      </trkpt>
      <trkpt lat="49.16768" lon="5.38711">
        <ele>202.49</ele>
        <time>2021-07-24T17:56:38Z</time>
      </trkpt>
      <trkpt lat="49.16767" lon="5.38706">
        <ele>202.49</ele>
        <time>2021-07-24T17:56:48Z</time>
      </trkpt>
      <trkpt lat="49.16769" lon="5.38687">
        <ele>202.98</ele>
        <time>2021-07-24T17:57:05Z</time>
      </trkpt>
      <trkpt lat="49.1677" lon="5.38682">
        <ele>202.98</ele>
        <time>2021-07-24T17:57:06Z</time>
      </trkpt>
      <trkpt lat="49.16768" lon="5.38677">
        <ele>202.98</ele>
        <time>2021-07-24T17:57:07Z</time>
      </trkpt>
      <trkpt lat="49.16762" lon="5.3866">
        <ele>202.98</ele>
        <time>2021-07-24T17:57:08Z</time>
      </trkpt>
      <trkpt lat="49.16762" lon="5.3866">
        <ele>203.46</ele>
        <time>2021-07-24T17:57:09Z</time>
      </trkpt>
      <trkpt lat="49.1676" lon="5.38651">
        <ele>203.46</ele>
        <time>2021-07-24T17:57:10Z</time>
      </trkpt>
      <trkpt lat="49.16758" lon="5.38641">
        <ele>203.94</ele>
        <time>2021-07-24T17:57:11Z</time>
      </trkpt>
      <trkpt lat="49.16755" lon="5.38621">
        <ele>203.94</ele>
        <time>2021-07-24T17:57:12Z</time>
      </trkpt>
      <trkpt lat="49.16744" lon="5.38524">
        <ele>202.98</ele>
        <time>2021-07-24T17:57:22Z</time>
      </trkpt>
      <trkpt lat="49.16743" lon="5.38516">
        <ele>202.98</ele>
        <time>2021-07-24T17:57:23Z</time>
      </trkpt>
      <trkpt lat="49.16742" lon="5.38511">
        <ele>203.46</ele>
        <time>2021-07-24T17:57:24Z</time>
      </trkpt>
      <trkpt lat="49.16742" lon="5.3851">
        <ele>202.98</ele>
        <time>2021-07-24T17:57:25Z</time>
      </trkpt>
      <trkpt lat="49.16748" lon="5.38508">
        <ele>202.98</ele>
        <time>2021-07-24T17:57:26Z</time>
      </trkpt>
      <trkpt lat="49.16757" lon="5.38494">
        <ele>202.98</ele>
        <time>2021-07-24T17:57:28Z</time>
      </trkpt>
      <trkpt lat="49.16757" lon="5.38494">
        <ele>202.49</ele>
        <time>2021-07-24T17:57:29Z</time>
      </trkpt>
      <trkpt lat="49.16756" lon="5.38484">
        <ele>202.49</ele>
        <time>2021-07-24T17:57:30Z</time>
      </trkpt>
      <trkpt lat="49.16755" lon="5.38478">
        <ele>202.49</ele>
        <time>2021-07-24T17:57:31Z</time>
      </trkpt>
      <trkpt lat="49.16748" lon="5.38472">
        <ele>202.01</ele>
        <time>2021-07-24T17:57:32Z</time>
      </trkpt>
      <trkpt lat="49.16744" lon="5.38473">
        <ele>202.01</ele>
        <time>2021-07-24T17:57:33Z</time>
      </trkpt>
      <trkpt lat="49.16735" lon="5.38472">
        <ele>201.53</ele>
        <time>2021-07-24T17:57:35Z</time>
      </trkpt>
      <trkpt lat="49.16731" lon="5.38468">
        <ele>201.05</ele>
        <time>2021-07-24T17:57:36Z</time>
      </trkpt>
      <trkpt lat="49.16682" lon="5.38388">
        <ele>199.13</ele>
        <time>2021-07-24T17:57:46Z</time>
      </trkpt>
      <trkpt lat="49.16588" lon="5.38246">
        <ele>203.46</ele>
        <time>2021-07-24T17:57:57Z</time>
      </trkpt>
      <trkpt lat="49.16539" lon="5.38175">
        <ele>206.82</ele>
        <time>2021-07-24T17:58:06Z</time>
      </trkpt>
      <trkpt lat="49.16528" lon="5.38149">
        <ele>208.26</ele>
        <time>2021-07-24T17:58:14Z</time>
      </trkpt>
      <trkpt lat="49.16514" lon="5.38146">
        <ele>207.78</ele>
        <time>2021-07-24T17:58:16Z</time>
      </trkpt>
      <trkpt lat="49.16514" lon="5.38146">
        <ele>207.3</ele>
        <time>2021-07-24T17:58:17Z</time>
      </trkpt>
      <trkpt lat="49.16511" lon="5.38139">
        <ele>207.3</ele>
        <time>2021-07-24T17:58:18Z</time>
      </trkpt>
      <trkpt lat="49.16505" lon="5.3812">
        <ele>207.78</ele>
        <time>2021-07-24T17:58:19Z</time>
      </trkpt>
      <trkpt lat="49.16505" lon="5.3812">
        <ele>207.3</ele>
        <time>2021-07-24T17:58:20Z</time>
      </trkpt>
      <trkpt lat="49.16448" lon="5.37986">
        <ele>210.19</ele>
        <time>2021-07-24T17:58:31Z</time>
      </trkpt>
      <trkpt lat="49.16394" lon="5.37895">
        <ele>209.7</ele>
        <time>2021-07-24T17:58:41Z</time>
      </trkpt>
      <trkpt lat="49.16315" lon="5.37746">
        <ele>213.07</ele>
        <time>2021-07-24T17:58:53Z</time>
      </trkpt>
      <trkpt lat="49.16289" lon="5.37624">
        <ele>213.55</ele>
        <time>2021-07-24T17:59:02Z</time>
      </trkpt>
      <trkpt lat="49.16288" lon="5.37616">
        <ele>213.55</ele>
        <time>2021-07-24T17:59:03Z</time>
      </trkpt>
      <trkpt lat="49.16288" lon="5.37609">
        <ele>212.59</ele>
        <time>2021-07-24T17:59:05Z</time>
      </trkpt>
      <trkpt lat="49.16296" lon="5.37591">
        <ele>212.59</ele>
        <time>2021-07-24T17:59:06Z</time>
      </trkpt>
      <trkpt lat="49.16294" lon="5.37583">
        <ele>212.59</ele>
        <time>2021-07-24T17:59:07Z</time>
      </trkpt>
      <trkpt lat="49.16284" lon="5.37569">
        <ele>212.11</ele>
        <time>2021-07-24T17:59:09Z</time>
      </trkpt>
      <trkpt lat="49.16281" lon="5.37559">
        <ele>212.11</ele>
        <time>2021-07-24T17:59:10Z</time>
      </trkpt>
      <trkpt lat="49.16279" lon="5.37549">
        <ele>211.63</ele>
        <time>2021-07-24T17:59:11Z</time>
      </trkpt>
      <trkpt lat="49.16279" lon="5.37538">
        <ele>211.63</ele>
        <time>2021-07-24T17:59:12Z</time>
      </trkpt>
      <trkpt lat="49.16279" lon="5.37526">
        <ele>211.63</ele>
        <time>2021-07-24T17:59:13Z</time>
      </trkpt>
      <trkpt lat="49.16279" lon="5.37515">
        <ele>211.63</ele>
        <time>2021-07-24T17:59:14Z</time>
      </trkpt>
      <trkpt lat="49.16282" lon="5.37504">
        <ele>210.67</ele>
        <time>2021-07-24T17:59:15Z</time>
      </trkpt>
      <trkpt lat="49.16291" lon="5.37482">
        <ele>210.19</ele>
        <time>2021-07-24T17:59:16Z</time>
      </trkpt>
      <trkpt lat="49.16291" lon="5.37482">
        <ele>207.78</ele>
        <time>2021-07-24T17:59:17Z</time>
      </trkpt>
      <trkpt lat="49.16295" lon="5.3747">
        <ele>208.74</ele>
        <time>2021-07-24T17:59:18Z</time>
      </trkpt>
      <trkpt lat="49.16314" lon="5.3746">
        <ele>208.74</ele>
        <time>2021-07-24T17:59:19Z</time>
      </trkpt>
      <trkpt lat="49.16324" lon="5.37457">
        <ele>208.74</ele>
        <time>2021-07-24T17:59:20Z</time>
      </trkpt>
      <trkpt lat="49.16324" lon="5.37457">
        <ele>209.7</ele>
        <time>2021-07-24T17:59:21Z</time>
      </trkpt>
      <trkpt lat="49.16333" lon="5.37458">
        <ele>210.19</ele>
        <time>2021-07-24T17:59:22Z</time>
      </trkpt>
      <trkpt lat="49.16414" lon="5.37453">
        <ele>209.7</ele>
        <time>2021-07-24T17:59:30Z</time>
      </trkpt>
      <trkpt lat="49.16414" lon="5.37453">
        <ele>209.22</ele>
        <time>2021-07-24T17:59:31Z</time>
      </trkpt>
      <trkpt lat="49.16422" lon="5.37443">
        <ele>209.22</ele>
        <time>2021-07-24T17:59:32Z</time>
      </trkpt>
      <trkpt lat="49.16429" lon="5.37435">
        <ele>208.74</ele>
        <time>2021-07-24T17:59:33Z</time>
      </trkpt>
      <trkpt lat="49.16436" lon="5.37427">
        <ele>208.26</ele>
        <time>2021-07-24T17:59:34Z</time>
      </trkpt>
      <trkpt lat="49.16438" lon="5.37419">
        <ele>208.26</ele>
        <time>2021-07-24T17:59:35Z</time>
      </trkpt>
      <trkpt lat="49.1644" lon="5.37405">
        <ele>209.22</ele>
        <time>2021-07-24T17:59:36Z</time>
      </trkpt>
      <trkpt lat="49.16441" lon="5.3739">
        <ele>209.22</ele>
        <time>2021-07-24T17:59:37Z</time>
      </trkpt>
      <trkpt lat="49.16441" lon="5.37376">
        <ele>210.19</ele>
        <time>2021-07-24T17:59:38Z</time>
      </trkpt>
      <trkpt lat="49.16438" lon="5.3736">
        <ele>210.19</ele>
        <time>2021-07-24T17:59:39Z</time>
      </trkpt>
      <trkpt lat="49.16386" lon="5.37197">
        <ele>208.74</ele>
        <time>2021-07-24T17:59:50Z</time>
      </trkpt>
      <trkpt lat="49.16379" lon="5.37179">
        <ele>208.26</ele>
        <time>2021-07-24T17:59:52Z</time>
      </trkpt>
      <trkpt lat="49.16378" lon="5.37171">
        <ele>207.3</ele>
        <time>2021-07-24T17:59:53Z</time>
      </trkpt>
      <trkpt lat="49.16377" lon="5.37164">
        <ele>206.82</ele>
        <time>2021-07-24T17:59:54Z</time>
      </trkpt>
      <trkpt lat="49.16383" lon="5.37146">
        <ele>205.86</ele>
        <time>2021-07-24T17:59:57Z</time>
      </trkpt>
      <trkpt lat="49.16387" lon="5.37129">
        <ele>205.38</ele>
        <time>2021-07-24T17:59:58Z</time>
      </trkpt>
      <trkpt lat="49.16382" lon="5.3712">
        <ele>205.38</ele>
        <time>2021-07-24T17:59:59Z</time>
      </trkpt>
      <trkpt lat="49.16382" lon="5.3712">
        <ele>205.38</ele>
        <time>2021-07-24T18:00:00Z</time>
      </trkpt>
      <trkpt lat="49.16379" lon="5.37097">
        <ele>205.38</ele>
        <time>2021-07-24T18:00:01Z</time>
      </trkpt>
      <trkpt lat="49.16378" lon="5.37086">
        <ele>205.38</ele>
        <time>2021-07-24T18:00:02Z</time>
      </trkpt>
      <trkpt lat="49.16378" lon="5.37086">
        <ele>205.38</ele>
        <time>2021-07-24T18:00:03Z</time>
      </trkpt>
      <trkpt lat="49.16374" lon="5.37061">
        <ele>204.9</ele>
        <time>2021-07-24T18:00:04Z</time>
      </trkpt>
      <trkpt lat="49.16374" lon="5.37061">
        <ele>204.9</ele>
        <time>2021-07-24T18:00:05Z</time>
      </trkpt>
      <trkpt lat="49.16372" lon="5.37047">
        <ele>204.42</ele>
        <time>2021-07-24T18:00:06Z</time>
      </trkpt>
      <trkpt lat="49.16369" lon="5.36863">
        <ele>201.05</ele>
        <time>2021-07-24T18:00:17Z</time>
      </trkpt>
      <trkpt lat="49.16372" lon="5.36788">
        <ele>201.53</ele>
        <time>2021-07-24T18:00:21Z</time>
      </trkpt>
      <trkpt lat="49.16372" lon="5.36788">
        <ele>201.53</ele>
        <time>2021-07-24T18:00:22Z</time>
      </trkpt>
      <trkpt lat="49.16374" lon="5.36774">
        <ele>201.05</ele>
        <time>2021-07-24T18:00:23Z</time>
      </trkpt>
      <trkpt lat="49.16391" lon="5.36684">
        <ele>200.57</ele>
        <time>2021-07-24T18:00:31Z</time>
      </trkpt>
      <trkpt lat="49.16397" lon="5.36663">
        <ele>201.53</ele>
        <time>2021-07-24T18:00:36Z</time>
      </trkpt>
      <trkpt lat="49.16405" lon="5.36652">
        <ele>201.53</ele>
        <time>2021-07-24T18:00:37Z</time>
      </trkpt>
      <trkpt lat="49.16411" lon="5.36627">
        <ele>202.01</ele>
        <time>2021-07-24T18:00:40Z</time>
      </trkpt>
      <trkpt lat="49.16413" lon="5.3662">
        <ele>202.01</ele>
        <time>2021-07-24T18:00:41Z</time>
      </trkpt>
      <trkpt lat="49.16412" lon="5.36609">
        <ele>202.01</ele>
        <time>2021-07-24T18:00:42Z</time>
      </trkpt>
      <trkpt lat="49.1641" lon="5.36605">
        <ele>202.01</ele>
        <time>2021-07-24T18:00:43Z</time>
      </trkpt>
      <trkpt lat="49.16404" lon="5.36595">
        <ele>202.49</ele>
        <time>2021-07-24T18:00:44Z</time>
      </trkpt>
      <trkpt lat="49.16405" lon="5.36586">
        <ele>202.98</ele>
        <time>2021-07-24T18:00:45Z</time>
      </trkpt>
      <trkpt lat="49.16406" lon="5.36577">
        <ele>203.46</ele>
        <time>2021-07-24T18:00:46Z</time>
      </trkpt>
      <trkpt lat="49.16414" lon="5.36501">
        <ele>206.34</ele>
        <time>2021-07-24T18:00:52Z</time>
      </trkpt>
      <trkpt lat="49.16418" lon="5.36488">
        <ele>206.34</ele>
        <time>2021-07-24T18:00:53Z</time>
      </trkpt>
      <trkpt lat="49.16453" lon="5.36386">
        <ele>207.3</ele>
        <time>2021-07-24T18:01:02Z</time>
      </trkpt>
      <trkpt lat="49.16509" lon="5.36237">
        <ele>207.3</ele>
        <time>2021-07-24T18:01:15Z</time>
      </trkpt>
      <trkpt lat="49.16595" lon="5.36004">
        <ele>205.38</ele>
        <time>2021-07-24T18:01:30Z</time>
      </trkpt>
      <trkpt lat="49.16698" lon="5.35727">
        <ele>202.49</ele>
        <time>2021-07-24T18:01:48Z</time>
      </trkpt>
      <trkpt lat="49.16819" lon="5.3541">
        <ele>202.01</ele>
        <time>2021-07-24T18:02:08Z</time>
      </trkpt>
      <trkpt lat="49.16925" lon="5.35276">
        <ele>198.17</ele>
        <time>2021-07-24T18:02:19Z</time>
      </trkpt>
      <trkpt lat="49.16989" lon="5.35208">
        <ele>198.17</ele>
        <time>2021-07-24T18:02:27Z</time>
      </trkpt>
      <trkpt lat="49.16992" lon="5.35206">
        <ele>198.17</ele>
        <time>2021-07-24T18:02:28Z</time>
      </trkpt>
      <trkpt lat="49.16996" lon="5.35204">
        <ele>198.17</ele>
        <time>2021-07-24T18:02:29Z</time>
      </trkpt>
      <trkpt lat="49.16999" lon="5.35204">
        <ele>198.65</ele>
        <time>2021-07-24T18:02:30Z</time>
      </trkpt>
      <trkpt lat="49.17011" lon="5.35191">
        <ele>198.65</ele>
        <time>2021-07-24T18:02:31Z</time>
      </trkpt>
      <trkpt lat="49.17011" lon="5.35191">
        <ele>198.65</ele>
        <time>2021-07-24T18:02:32Z</time>
      </trkpt>
      <trkpt lat="49.17056" lon="5.35135">
        <ele>198.17</ele>
        <time>2021-07-24T18:02:40Z</time>
      </trkpt>
      <trkpt lat="49.17167" lon="5.35013">
        <ele>196.25</ele>
        <time>2021-07-24T18:02:51Z</time>
      </trkpt>
      <trkpt lat="49.1733" lon="5.34837">
        <ele>193.36</ele>
        <time>2021-07-24T18:03:04Z</time>
      </trkpt>
      <trkpt lat="49.17524" lon="5.34624">
        <ele>193.36</ele>
        <time>2021-07-24T18:03:22Z</time>
      </trkpt>
      <trkpt lat="49.17715" lon="5.34412">
        <ele>191.92</ele>
        <time>2021-07-24T18:03:36Z</time>
      </trkpt>
      <trkpt lat="49.18138" lon="5.33948">
        <ele>193.84</ele>
        <time>2021-07-24T18:04:05Z</time>
      </trkpt>
      <trkpt lat="49.18437" lon="5.33618">
        <ele>195.28</ele>
        <time>2021-07-24T18:04:26Z</time>
      </trkpt>
      <trkpt lat="49.18472" lon="5.33588">
        <ele>195.77</ele>
        <time>2021-07-24T18:04:29Z</time>
      </trkpt>
      <trkpt lat="49.18484" lon="5.3358">
        <ele>196.25</ele>
        <time>2021-07-24T18:04:30Z</time>
      </trkpt>
      <trkpt lat="49.18496" lon="5.33572">
        <ele>195.77</ele>
        <time>2021-07-24T18:04:31Z</time>
      </trkpt>
      <trkpt lat="49.1851" lon="5.33571">
        <ele>195.28</ele>
        <time>2021-07-24T18:04:32Z</time>
      </trkpt>
      <trkpt lat="49.18524" lon="5.33571">
        <ele>195.28</ele>
        <time>2021-07-24T18:04:33Z</time>
      </trkpt>
      <trkpt lat="49.18538" lon="5.33572">
        <ele>195.28</ele>
        <time>2021-07-24T18:04:34Z</time>
      </trkpt>
      <trkpt lat="49.18551" lon="5.33581">
        <ele>195.28</ele>
        <time>2021-07-24T18:04:35Z</time>
      </trkpt>
      <trkpt lat="49.18564" lon="5.33591">
        <ele>195.28</ele>
        <time>2021-07-24T18:04:36Z</time>
      </trkpt>
      <trkpt lat="49.18575" lon="5.33604">
        <ele>195.28</ele>
        <time>2021-07-24T18:04:37Z</time>
      </trkpt>
      <trkpt lat="49.18586" lon="5.33619">
        <ele>195.28</ele>
        <time>2021-07-24T18:04:38Z</time>
      </trkpt>
      <trkpt lat="49.18597" lon="5.33636">
        <ele>195.77</ele>
        <time>2021-07-24T18:04:39Z</time>
      </trkpt>
      <trkpt lat="49.18755" lon="5.33898">
        <ele>196.73</ele>
        <time>2021-07-24T18:04:53Z</time>
      </trkpt>
      <trkpt lat="49.18879" lon="5.34087">
        <ele>198.17</ele>
        <time>2021-07-24T18:05:04Z</time>
      </trkpt>
      <trkpt lat="49.18892" lon="5.34101">
        <ele>197.69</ele>
        <time>2021-07-24T18:05:05Z</time>
      </trkpt>
      <trkpt lat="49.18907" lon="5.34111">
        <ele>197.21</ele>
        <time>2021-07-24T18:05:06Z</time>
      </trkpt>
      <trkpt lat="49.18921" lon="5.34117">
        <ele>197.69</ele>
        <time>2021-07-24T18:05:07Z</time>
      </trkpt>
      <trkpt lat="49.18935" lon="5.34123">
        <ele>197.69</ele>
        <time>2021-07-24T18:05:08Z</time>
      </trkpt>
      <trkpt lat="49.18949" lon="5.34128">
        <ele>197.69</ele>
        <time>2021-07-24T18:05:09Z</time>
      </trkpt>
      <trkpt lat="49.19251" lon="5.34189">
        <ele>199.61</ele>
        <time>2021-07-24T18:05:28Z</time>
      </trkpt>
      <trkpt lat="49.19268" lon="5.34189">
        <ele>199.13</ele>
        <time>2021-07-24T18:05:29Z</time>
      </trkpt>
      <trkpt lat="49.19303" lon="5.34185">
        <ele>198.65</ele>
        <time>2021-07-24T18:05:30Z</time>
      </trkpt>
      <trkpt lat="49.19385" lon="5.34165">
        <ele>198.17</ele>
        <time>2021-07-24T18:05:36Z</time>
      </trkpt>
      <trkpt lat="49.19416" lon="5.34173">
        <ele>199.13</ele>
        <time>2021-07-24T18:05:37Z</time>
      </trkpt>
      <trkpt lat="49.19416" lon="5.34173">
        <ele>200.57</ele>
        <time>2021-07-24T18:05:38Z</time>
      </trkpt>
      <trkpt lat="49.19432" lon="5.34178">
        <ele>200.09</ele>
        <time>2021-07-24T18:05:39Z</time>
      </trkpt>
      <trkpt lat="49.19446" lon="5.34188">
        <ele>199.61</ele>
        <time>2021-07-24T18:05:40Z</time>
      </trkpt>
      <trkpt lat="49.1946" lon="5.34199">
        <ele>199.61</ele>
        <time>2021-07-24T18:05:41Z</time>
      </trkpt>
      <trkpt lat="49.19487" lon="5.34222">
        <ele>200.09</ele>
        <time>2021-07-24T18:05:42Z</time>
      </trkpt>
      <trkpt lat="49.19487" lon="5.34222">
        <ele>200.57</ele>
        <time>2021-07-24T18:05:43Z</time>
      </trkpt>
      <trkpt lat="49.19499" lon="5.34237">
        <ele>200.57</ele>
        <time>2021-07-24T18:05:44Z</time>
      </trkpt>
      <trkpt lat="49.19679" lon="5.34463">
        <ele>203.94</ele>
        <time>2021-07-24T18:05:57Z</time>
      </trkpt>
      <trkpt lat="49.19761" lon="5.34641">
        <ele>203.94</ele>
        <time>2021-07-24T18:06:05Z</time>
      </trkpt>
      <trkpt lat="49.19816" lon="5.34746">
        <ele>206.82</ele>
        <time>2021-07-24T18:06:09Z</time>
      </trkpt>
      <trkpt lat="49.19829" lon="5.3476">
        <ele>207.78</ele>
        <time>2021-07-24T18:06:10Z</time>
      </trkpt>
      <trkpt lat="49.19829" lon="5.3476">
        <ele>207.78</ele>
        <time>2021-07-24T18:06:11Z</time>
      </trkpt>
      <trkpt lat="49.1998" lon="5.34928">
        <ele>218.36</ele>
        <time>2021-07-24T18:06:22Z</time>
      </trkpt>
      <trkpt lat="49.20139" lon="5.35125">
        <ele>214.03</ele>
        <time>2021-07-24T18:06:35Z</time>
      </trkpt>
      <trkpt lat="49.20315" lon="5.35353">
        <ele>202.01</ele>
        <time>2021-07-24T18:06:49Z</time>
      </trkpt>
      <trkpt lat="49.20372" lon="5.35456">
        <ele>200.09</ele>
        <time>2021-07-24T18:06:56Z</time>
      </trkpt>
      <trkpt lat="49.20438" lon="5.35585">
        <ele>198.65</ele>
        <time>2021-07-24T18:07:08Z</time>
      </trkpt>
      <trkpt lat="49.20452" lon="5.35614">
        <ele>199.13</ele>
        <time>2021-07-24T18:07:15Z</time>
      </trkpt>
      <trkpt lat="49.20458" lon="5.35617">
        <ele>199.61</ele>
        <time>2021-07-24T18:07:16Z</time>
      </trkpt>
      <trkpt lat="49.20461" lon="5.35613">
        <ele>199.61</ele>
        <time>2021-07-24T18:07:17Z</time>
      </trkpt>
      <trkpt lat="49.20465" lon="5.3561">
        <ele>199.61</ele>
        <time>2021-07-24T18:07:18Z</time>
      </trkpt>
      <trkpt lat="49.20468" lon="5.35605">
        <ele>200.09</ele>
        <time>2021-07-24T18:07:19Z</time>
      </trkpt>
      <trkpt lat="49.20529" lon="5.35525">
        <ele>205.38</ele>
        <time>2021-07-24T18:07:30Z</time>
      </trkpt>
      <trkpt lat="49.20645" lon="5.35377">
        <ele>210.19</ele>
        <time>2021-07-24T18:07:43Z</time>
      </trkpt>
      <trkpt lat="49.20758" lon="5.35184">
        <ele>211.63</ele>
        <time>2021-07-24T18:07:54Z</time>
      </trkpt>
      <trkpt lat="49.20891" lon="5.34981">
        <ele>208.26</ele>
        <time>2021-07-24T18:08:04Z</time>
      </trkpt>
      <trkpt lat="49.21042" lon="5.34756">
        <ele>209.7</ele>
        <time>2021-07-24T18:08:15Z</time>
      </trkpt>
      <trkpt lat="49.21051" lon="5.34734">
        <ele>209.22</ele>
        <time>2021-07-24T18:08:16Z</time>
      </trkpt>
      <trkpt lat="49.2106" lon="5.34709">
        <ele>208.26</ele>
        <time>2021-07-24T18:08:17Z</time>
      </trkpt>
      <trkpt lat="49.21066" lon="5.34684">
        <ele>207.78</ele>
        <time>2021-07-24T18:08:18Z</time>
      </trkpt>
      <trkpt lat="49.21072" lon="5.34657">
        <ele>208.26</ele>
        <time>2021-07-24T18:08:19Z</time>
      </trkpt>
      <trkpt lat="49.21137" lon="5.34294">
        <ele>206.82</ele>
        <time>2021-07-24T18:08:32Z</time>
      </trkpt>
      <trkpt lat="49.21156" lon="5.34031">
        <ele>209.7</ele>
        <time>2021-07-24T18:08:41Z</time>
      </trkpt>
      <trkpt lat="49.2115" lon="5.33614">
        <ele>205.38</ele>
        <time>2021-07-24T18:08:55Z</time>
      </trkpt>
      <trkpt lat="49.21144" lon="5.33588">
        <ele>204.9</ele>
        <time>2021-07-24T18:08:56Z</time>
      </trkpt>
      <trkpt lat="49.21068" lon="5.33191">
        <ele>198.65</ele>
        <time>2021-07-24T18:09:10Z</time>
      </trkpt>
      <trkpt lat="49.21021" lon="5.3282">
        <ele>196.73</ele>
        <time>2021-07-24T18:09:23Z</time>
      </trkpt>
      <trkpt lat="49.21013" lon="5.32589">
        <ele>200.09</ele>
        <time>2021-07-24T18:09:31Z</time>
      </trkpt>
      <trkpt lat="49.20994" lon="5.32376">
        <ele>198.65</ele>
        <time>2021-07-24T18:09:39Z</time>
      </trkpt>
      <trkpt lat="49.20961" lon="5.32122">
        <ele>194.8</ele>
        <time>2021-07-24T18:09:48Z</time>
      </trkpt>
      <trkpt lat="49.20952" lon="5.31746">
        <ele>192.88</ele>
        <time>2021-07-24T18:10:01Z</time>
      </trkpt>
      <trkpt lat="49.2096" lon="5.31428">
        <ele>196.25</ele>
        <time>2021-07-24T18:10:12Z</time>
      </trkpt>
      <trkpt lat="49.20975" lon="5.31199">
        <ele>192.88</ele>
        <time>2021-07-24T18:10:20Z</time>
      </trkpt>
      <trkpt lat="49.20998" lon="5.31093">
        <ele>194.8</ele>
        <time>2021-07-24T18:10:24Z</time>
      </trkpt>
      <trkpt lat="49.21003" lon="5.31069">
        <ele>195.28</ele>
        <time>2021-07-24T18:10:25Z</time>
      </trkpt>
      <trkpt lat="49.21006" lon="5.31045">
        <ele>195.77</ele>
        <time>2021-07-24T18:10:26Z</time>
      </trkpt>
      <trkpt lat="49.21002" lon="5.30856">
        <ele>195.77</ele>
        <time>2021-07-24T18:10:34Z</time>
      </trkpt>
      <trkpt lat="49.21008" lon="5.3079">
        <ele>192.88</ele>
        <time>2021-07-24T18:10:40Z</time>
      </trkpt>
      <trkpt lat="49.21038" lon="5.30684">
        <ele>191.92</ele>
        <time>2021-07-24T18:10:50Z</time>
      </trkpt>
      <trkpt lat="49.21103" lon="5.30531">
        <ele>190.96</ele>
        <time>2021-07-24T18:11:04Z</time>
      </trkpt>
      <trkpt lat="49.21144" lon="5.30441">
        <ele>190.96</ele>
        <time>2021-07-24T18:11:16Z</time>
      </trkpt>
      <trkpt lat="49.21168" lon="5.30349">
        <ele>190.48</ele>
        <time>2021-07-24T18:11:24Z</time>
      </trkpt>
      <trkpt lat="49.21169" lon="5.30337">
        <ele>190.48</ele>
        <time>2021-07-24T18:11:25Z</time>
      </trkpt>
      <trkpt lat="49.21167" lon="5.30326">
        <ele>190.48</ele>
        <time>2021-07-24T18:11:26Z</time>
      </trkpt>
      <trkpt lat="49.21164" lon="5.30314">
        <ele>190</ele>
        <time>2021-07-24T18:11:27Z</time>
      </trkpt>
      <trkpt lat="49.21162" lon="5.30303">
        <ele>190</ele>
        <time>2021-07-24T18:11:28Z</time>
      </trkpt>
      <trkpt lat="49.21159" lon="5.30293">
        <ele>190</ele>
        <time>2021-07-24T18:11:29Z</time>
      </trkpt>
      <trkpt lat="49.21138" lon="5.3024">
        <ele>190</ele>
        <time>2021-07-24T18:11:34Z</time>
      </trkpt>
      <trkpt lat="49.21134" lon="5.30229">
        <ele>190</ele>
        <time>2021-07-24T18:11:35Z</time>
      </trkpt>
      <trkpt lat="49.21133" lon="5.30216">
        <ele>189.52</ele>
        <time>2021-07-24T18:11:36Z</time>
      </trkpt>
      <trkpt lat="49.21133" lon="5.30204">
        <ele>189.04</ele>
        <time>2021-07-24T18:11:37Z</time>
      </trkpt>
      <trkpt lat="49.21135" lon="5.30194">
        <ele>189.04</ele>
        <time>2021-07-24T18:11:38Z</time>
      </trkpt>
      <trkpt lat="49.21137" lon="5.30182">
        <ele>189.04</ele>
        <time>2021-07-24T18:11:39Z</time>
      </trkpt>
      <trkpt lat="49.21139" lon="5.30171">
        <ele>189.52</ele>
        <time>2021-07-24T18:11:40Z</time>
      </trkpt>
      <trkpt lat="49.21143" lon="5.3016">
        <ele>190</ele>
        <time>2021-07-24T18:11:41Z</time>
      </trkpt>
      <trkpt lat="49.21171" lon="5.30049">
        <ele>191.44</ele>
        <time>2021-07-24T18:11:51Z</time>
      </trkpt>
      <trkpt lat="49.21182" lon="5.29974">
        <ele>192.88</ele>
        <time>2021-07-24T18:12:03Z</time>
      </trkpt>
      <trkpt lat="49.21182" lon="5.2997">
        <ele>192.88</ele>
        <time>2021-07-24T18:12:05Z</time>
      </trkpt>
      <trkpt lat="49.21182" lon="5.29969">
        <ele>192.88</ele>
        <time>2021-07-24T18:12:06Z</time>
      </trkpt>
      <trkpt lat="49.21183" lon="5.29966">
        <ele>193.36</ele>
        <time>2021-07-24T18:12:07Z</time>
      </trkpt>
      <trkpt lat="49.21183" lon="5.29964">
        <ele>193.36</ele>
        <time>2021-07-24T18:12:08Z</time>
      </trkpt>
      <trkpt lat="49.21183" lon="5.29962">
        <ele>193.36</ele>
        <time>2021-07-24T18:12:09Z</time>
      </trkpt>
    </trkseg>
  </trk>
</gpx>